Time;durP1;ratioP1;P1;durP2;ratioP2;P2;SDS_P1;SDS_P2;PMS_P1;PMS_P2;Temp;Humidity;BMP_temperature;BMP_pressure;BME280_temperature;BME280_humidity;BME280_pressure;Samples;Min_cycle;Max_cycle;Signal;HPM_P1;HPM_P2
2021/09/15 00:02:24;;;;;;;8.98;7.88;;;19.70;93.30;;;;;;4884341;29;20080;-82
2021/09/15 00:04:49;;;;;;;9.32;8.40;;;19.60;93.40;;;;;;4884124;29;20108;-82
2021/09/15 00:07:15;;;;;;;9.55;7.85;;;19.60;93.40;;;;;;4868819;29;20089;-82
2021/09/15 00:09:41;;;;;;;9.05;8.25;;;19.60;93.50;;;;;;4884743;29;20032;-82
2021/09/15 00:12:07;;;;;;;10.75;8.88;;;19.60;93.60;;;;;;4868833;29;20032;-82
2021/09/15 00:14:32;;;;;;;11.07;8.32;;;19.60;93.70;;;;;;4915402;29;20033;-82
2021/09/15 00:16:58;;;;;;;9.05;8.15;;;19.60;93.70;;;;;;4884116;29;20037;-82
2021/09/15 00:19:23;;;;;;;11.88;8.40;;;19.60;93.70;;;;;;4899553;29;20064;-82
2021/09/15 00:21:49;;;;;;;9.02;8.13;;;19.50;93.80;;;;;;4884337;29;20033;-82
2021/09/15 00:24:15;;;;;;;12.55;9.00;;;19.50;93.90;;;;;;4899584;29;20481;-82
2021/09/15 00:26:41;;;;;;;9.45;8.30;;;19.50;93.90;;;;;;4899815;29;20151;-82
2021/09/15 00:29:06;;;;;;;8.98;8.07;;;19.50;94.00;;;;;;4870510;29;20029;-82
2021/09/15 00:31:32;;;;;;;9.63;8.73;;;19.50;94.00;;;;;;4902255;29;20032;-81
2021/09/15 00:33:58;;;;;;;12.15;9.40;;;19.50;94.00;;;;;;4899156;29;20028;-82
2021/09/15 00:36:24;;;;;;;10.73;8.32;;;19.50;94.10;;;;;;4899365;29;20033;-82
2021/09/15 00:38:50;;;;;;;9.60;8.60;;;19.50;94.10;;;;;;4899418;29;20044;-82
2021/09/15 00:41:15;;;;;;;10.13;9.07;;;19.50;94.10;;;;;;4868383;29;20044;-81
2021/09/15 00:44:09;;;;;;;10.50;9.40;;;19.50;94.10;;;;;;4899376;29;20060;-81
2021/09/15 00:46:36;;;;;;;10.35;9.30;;;19.50;94.10;;;;;;4915781;29;20417;-82
2021/09/15 00:49:02;;;;;;;9.75;8.77;;;19.50;94.00;;;;;;4900528;29;20029;-82
2021/09/15 00:51:28;;;;;;;12.15;8.85;;;19.50;94.00;;;;;;4901166;29;20032;-81
2021/09/15 00:53:54;;;;;;;10.30;9.20;;;19.50;94.00;;;;;;4869467;29;20520;-82
2021/09/15 00:56:20;;;;;;;10.35;9.25;;;19.50;94.00;;;;;;4884230;29;20036;-81
2021/09/15 00:58:46;;;;;;;11.82;9.10;;;19.50;94.00;;;;;;4919657;29;20055;-82
2021/09/15 01:01:12;;;;;;;10.48;9.05;;;19.50;94.00;;;;;;4911474;29;20032;-81
2021/09/15 01:03:40;;;;;;;10.73;8.40;;;19.50;94.00;;;;;;4925522;29;20028;-82
2021/09/15 01:06:07;;;;;;;10.25;9.02;;;19.50;94.00;;;;;;4925237;29;20068;-80
2021/09/15 01:08:33;;;;;;;9.60;8.55;;;19.50;94.00;;;;;;4922537;29;20531;-81
2021/09/15 01:10:59;;;;;;;10.95;8.75;;;19.50;94.00;;;;;;4939093;29;20099;-81
2021/09/15 01:13:27;;;;;;;11.00;8.73;;;19.50;94.10;;;;;;4921082;29;20059;-81
2021/09/15 01:15:53;;;;;;;12.27;9.00;;;19.50;94.10;;;;;;4935479;29;20084;-82
2021/09/15 01:18:20;;;;;;;9.52;8.20;;;19.50;94.20;;;;;;4902694;29;20071;-81
2021/09/15 01:20:46;;;;;;;10.15;9.05;;;19.40;94.20;;;;;;4902240;29;20040;-81
2021/09/15 01:23:12;;;;;;;10.60;8.90;;;19.40;94.30;;;;;;4933479;29;20123;-81
2021/09/15 01:25:38;;;;;;;10.10;8.73;;;19.50;94.30;;;;;;4917408;29;20055;-82
2021/09/15 01:28:04;;;;;;;10.38;9.38;;;19.50;94.40;;;;;;4917772;29;20036;-81
2021/09/15 01:30:30;;;;;;;10.45;8.73;;;19.40;94.40;;;;;;4901968;29;20055;-81
2021/09/15 01:32:56;;;;;;;10.20;9.20;;;19.40;94.40;;;;;;4901790;29;20428;-81
2021/09/15 01:35:22;;;;;;;10.20;9.20;;;19.40;94.50;;;;;;4917015;29;20038;-81
2021/09/15 01:37:49;;;;;;;12.68;9.82;;;19.40;94.50;;;;;;4918860;29;20032;-81
2021/09/15 01:40:15;;;;;;;12.38;10.90;;;19.40;94.60;;;;;;4901825;29;20047;-81
2021/09/15 01:42:41;;;;;;;12.15;9.88;;;19.30;94.60;;;;;;4885882;29;20036;-81
2021/09/15 01:45:09;;;;;;;11.77;10.05;;;19.40;94.70;;;;;;4932960;29;20025;-81
2021/09/15 01:47:35;;;;;;;13.40;11.00;;;19.40;94.70;;;;;;4932981;29;20020;-81
2021/09/15 01:50:01;;;;;;;11.95;10.85;;;19.30;94.70;;;;;;4917712;29;20024;-81
2021/09/15 01:52:27;;;;;;;12.57;10.38;;;19.30;94.70;;;;;;4886088;29;20444;-81
2021/09/15 01:54:53;;;;;;;11.45;10.27;;;19.30;94.70;;;;;;4886568;29;20039;-81
2021/09/15 01:57:18;;;;;;;13.27;9.93;;;19.30;94.70;;;;;;4913776;29;20508;-81
2021/09/15 01:59:44;;;;;;;10.77;9.68;;;19.30;94.70;;;;;;4914176;29;20385;-81
2021/09/15 02:02:13;;;;;;;11.15;9.95;;;19.40;94.70;;;;;;4867758;29;20032;-81
2021/09/15 02:04:39;;;;;;;10.68;9.48;;;19.30;94.70;;;;;;4914822;29;20450;-82
2021/09/15 02:07:05;;;;;;;11.82;10.65;;;19.40;94.80;;;;;;4914756;29;20040;-82
2021/09/15 02:09:31;;;;;;;11.73;10.63;;;19.40;94.90;;;;;;4898291;29;20032;-81
2021/09/15 02:11:57;;;;;;;11.88;10.68;;;19.30;94.90;;;;;;4913748;29;20491;-81
2021/09/15 02:14:23;;;;;;;10.88;9.80;;;19.40;94.90;;;;;;4867774;29;20032;-82
2021/09/15 02:16:50;;;;;;;12.65;9.65;;;19.30;94.90;;;;;;4913550;29;20067;-81
2021/09/15 02:19:16;;;;;;;11.40;10.30;;;19.40;94.90;;;;;;4913980;29;20033;-81
2021/09/15 02:21:41;;;;;;;12.05;10.85;;;19.40;95.00;;;;;;4882651;29;20036;-81
2021/09/15 02:24:07;;;;;;;12.52;11.23;;;19.30;95.10;;;;;;4867982;29;20025;-81
2021/09/15 02:26:33;;;;;;;12.35;11.05;;;19.30;95.10;;;;;;4898247;29;20060;-82
2021/09/15 02:28:59;;;;;;;14.73;11.70;;;19.30;95.10;;;;;;4913834;29;20029;-82
2021/09/15 02:31:25;;;;;;;12.25;10.98;;;19.30;95.20;;;;;;4914058;29;20119;-82
2021/09/15 02:33:51;;;;;;;13.52;12.13;;;19.30;95.30;;;;;;4897972;29;20035;-82
2021/09/15 02:36:16;;;;;;;13.52;12.13;;;19.30;95.30;;;;;;4866679;29;20396;-82
2021/09/15 02:38:42;;;;;;;15.32;13.27;;;19.30;95.40;;;;;;4882053;29;20088;-82
2021/09/15 02:41:09;;;;;;;16.63;13.02;;;19.30;95.40;;;;;;4913270;29;20028;-82
2021/09/15 02:43:35;;;;;;;15.48;13.30;;;19.20;95.50;;;;;;4866428;29;20028;-81
2021/09/15 02:46:00;;;;;;;13.73;12.27;;;19.30;95.50;;;;;;4881901;29;20052;-82
2021/09/15 02:48:26;;;;;;;13.55;12.07;;;19.30;95.40;;;;;;4867004;29;20464;-82
2021/09/15 02:50:52;;;;;;;14.45;12.65;;;19.20;95.40;;;;;;4913341;29;20035;-82
2021/09/15 02:53:18;;;;;;;14.43;12.50;;;19.30;95.50;;;;;;4866748;29;20040;-81
2021/09/15 02:55:43;;;;;;;13.68;12.25;;;19.30;95.50;;;;;;4868015;29;20123;-82
2021/09/15 02:58:09;;;;;;;14.80;12.85;;;19.30;95.50;;;;;;4895794;29;20047;-82
2021/09/15 03:00:36;;;;;;;16.98;12.70;;;19.30;95.50;;;;;;4921626;29;20433;-82
2021/09/15 03:03:02;;;;;;;13.75;12.15;;;19.30;95.50;;;;;;4935810;29;20075;-81
2021/09/15 03:05:28;;;;;;;14.13;11.82;;;19.30;95.50;;;;;;4872870;29;20123;-81
2021/09/15 03:07:54;;;;;;;14.40;12.80;;;19.30;95.50;;;;;;4904130;29;20028;-82
2021/09/15 03:10:20;;;;;;;16.58;14.05;;;19.40;95.60;;;;;;4919943;29;20169;-82
2021/09/15 03:12:46;;;;;;;14.70;13.13;;;19.30;95.60;;;;;;4888450;29;20028;-82
2021/09/15 03:15:11;;;;;;;14.45;13.00;;;19.40;95.70;;;;;;4888523;29;20032;-82
2021/09/15 03:17:37;;;;;;;14.40;12.90;;;19.40;95.60;;;;;;4935464;29;20091;-82
2021/09/15 03:20:05;;;;;;;13.10;11.80;;;19.30;95.60;;;;;;4873206;29;20073;-81
2021/09/15 03:22:31;;;;;;;12.95;11.50;;;19.30;95.60;;;;;;4890004;29;20071;-82
2021/09/15 03:24:56;;;;;;;14.02;12.50;;;19.40;95.60;;;;;;4888515;29;20024;-82
2021/09/15 03:27:22;;;;;;;15.40;13.13;;;19.40;95.60;;;;;;4872719;29;20466;-81
2021/09/15 03:29:48;;;;;;;14.40;12.93;;;19.40;95.60;;;;;;4872372;29;20050;-82
2021/09/15 03:32:14;;;;;;;14.48;12.98;;;19.40;95.70;;;;;;4887959;29;20055;-82
2021/09/15 03:34:39;;;;;;;15.98;14.38;;;19.30;95.90;;;;;;4888143;29;20393;-81
2021/09/15 03:37:05;;;;;;;16.45;14.75;;;19.30;95.80;;;;;;4919073;29;20043;-80
2021/09/15 03:39:31;;;;;;;19.85;15.68;;;19.30;95.90;;;;;;4904414;29;20138;-79
2021/09/15 03:41:57;;;;;;;20.35;18.20;;;19.30;96.00;;;;;;4934840;29;20127;-82
2021/09/15 03:44:22;;;;;;;19.30;17.10;;;19.40;96.20;;;;;;4888861;29;20143;-83
2021/09/15 03:46:48;;;;;;;19.35;16.38;;;19.20;96.40;;;;;;4903711;29;20028;-83
2021/09/15 03:49:14;;;;;;;19.15;16.85;;;19.00;96.80;;;;;;4872812;29;20032;-84
2021/09/15 03:51:39;;;;;;;19.08;17.08;;;18.80;97.10;;;;;;4921143;29;20063;-84
2021/09/15 03:54:05;;;;;;;18.15;16.33;;;18.70;97.30;;;;;;4920090;29;20099;-84
2021/09/15 03:56:31;;;;;;;19.83;16.30;;;18.70;97.50;;;;;;4872322;29;20040;-84
2021/09/15 03:58:56;;;;;;;21.85;17.77;;;18.80;97.60;;;;;;4887406;29;20096;-83
2021/09/15 04:01:22;;;;;;;20.75;17.90;;;18.80;97.70;;;;;;4869538;29;20040;-82
2021/09/15 04:03:48;;;;;;;20.35;17.45;;;18.90;97.80;;;;;;4869977;29;20430;-83
2021/09/15 04:06:13;;;;;;;24.90;19.20;;;18.90;97.90;;;;;;4885339;29;20032;-84
2021/09/15 04:08:39;;;;;;;21.90;17.73;;;18.90;98.00;;;;;;4884084;29;20040;-84
2021/09/15 04:11:04;;;;;;;24.13;19.10;;;18.90;98.10;;;;;;4869503;29;20461;-83
2021/09/15 04:13:30;;;;;;;29.02;19.58;;;18.90;98.20;;;;;;4869888;29;20039;-86
2021/09/15 04:15:56;;;;;;;22.15;18.42;;;18.90;98.30;;;;;;4869658;29;20136;-87
2021/09/15 04:18:21;;;;;;;21.80;18.70;;;19.00;98.30;;;;;;4885020;29;20117;-85
2021/09/15 04:20:47;;;;;;;24.15;18.88;;;19.00;98.40;;;;;;4869524;29;20039;-85
2021/09/15 04:23:20;;;;;;;21.90;19.60;;;19.00;98.40;;;;;;4916948;29;20040;-84
2021/09/15 04:31:22;;;;;;;25.42;20.30;;;19.00;98.60;;;;;;4870464;29;20047;-86
2021/09/15 04:33:48;;;;;;;22.92;19.73;;;19.00;98.70;;;;;;4885535;29;20036;-86
2021/09/15 04:36:14;;;;;;;25.20;20.48;;;19.00;98.70;;;;;;4900162;29;20040;-85
2021/09/15 04:38:41;;;;;;;24.17;20.25;;;19.00;98.80;;;;;;4917177;29;20096;-86
2021/09/15 04:41:07;;;;;;;23.05;20.25;;;19.00;98.80;;;;;;4901639;29;20029;-85
2021/09/15 04:43:33;;;;;;;26.65;20.85;;;19.10;98.80;;;;;;4917021;29;20037;-86
2021/09/15 04:45:58;;;;;;;22.38;19.33;;;19.10;98.90;;;;;;4869151;29;20465;-87
2021/09/15 04:48:25;;;;;;;26.50;20.42;;;19.10;98.90;;;;;;4868987;29;20060;-87
2021/09/15 04:50:51;;;;;;;24.35;19.73;;;19.10;98.90;;;;;;4884116;29;20025;-81
2021/09/15 04:53:16;;;;;;;23.88;20.48;;;19.10;99.00;;;;;;4883984;29;20043;-82
2021/09/15 04:55:42;;;;;;;28.80;20.98;;;19.10;99.00;;;;;;4867999;29;20079;-82
2021/09/15 04:58:08;;;;;;;24.15;20.60;;;19.10;99.00;;;;;;4868327;29;20436;-83
2021/09/15 05:00:34;;;;;;;29.50;23.27;;;19.10;99.10;;;;;;4868493;29;20036;-83
2021/09/15 05:03:00;;;;;;;26.88;22.40;;;19.10;99.10;;;;;;4868859;29;20056;-84
2021/09/15 05:05:26;;;;;;;27.15;23.50;;;19.00;99.20;;;;;;4884057;29;20040;-81
2021/09/15 05:07:51;;;;;;;24.20;21.10;;;19.00;99.20;;;;;;4900872;29;20029;-82
2021/09/15 05:10:17;;;;;;;24.52;20.67;;;18.90;99.20;;;;;;4870948;29;20036;-83
2021/09/15 05:12:44;;;;;;;27.23;22.30;;;18.90;99.30;;;;;;4904372;29;20024;-82
2021/09/15 05:15:10;;;;;;;26.98;21.92;;;18.90;99.30;;;;;;4869870;29;20036;-84
2021/09/15 05:17:36;;;;;;;24.77;21.70;;;18.90;99.30;;;;;;4917409;29;20036;-84
2021/09/15 05:20:02;;;;;;;26.08;22.00;;;18.90;99.40;;;;;;4868679;29;20055;-89
2021/09/15 05:22:28;;;;;;;29.95;24.10;;;18.90;99.40;;;;;;4869918;29;20088;-87
2021/09/15 05:24:54;;;;;;;30.30;24.10;;;18.90;99.40;;;;;;4901842;29;20048;-87
2021/09/15 05:27:20;;;;;;;30.25;23.90;;;18.90;99.50;;;;;;4868715;29;20123;-87
2021/09/15 05:29:46;;;;;;;28.65;23.25;;;18.90;99.50;;;;;;4920512;29;20519;-88
2021/09/15 05:32:12;;;;;;;29.55;24.17;;;18.90;99.60;;;;;;4905276;29;20028;-88
2021/09/15 05:34:39;;;;;;;29.92;23.27;;;18.90;99.60;;;;;;4872907;29;20450;-89
2021/09/15 05:37:05;;;;;;;28.25;24.20;;;18.90;99.60;;;;;;4916594;29;20040;-87
2021/09/15 05:39:30;;;;;;;28.35;24.63;;;18.80;99.60;;;;;;4884410;29;20021;-85
2021/09/15 05:41:56;;;;;;;33.67;27.92;;;18.80;99.60;;;;;;4883648;29;20076;-86
2021/09/15 05:44:25;;;;;;;30.60;26.25;;;18.80;99.70;;;;;;4915110;29;20271;-86
2021/09/15 05:46:50;;;;;;;28.98;25.00;;;18.80;99.70;;;;;;4884227;29;20037;-86
2021/09/15 05:49:16;;;;;;;29.27;24.80;;;18.80;99.80;;;;;;4883862;29;20043;-86
2021/09/15 05:51:44;;;;;;;27.55;24.27;;;18.90;99.80;;;;;;4883527;29;20440;-87
2021/09/15 05:54:10;;;;;;;29.95;25.90;;;18.90;99.80;;;;;;4884732;29;20032;-86
2021/09/15 05:56:36;;;;;;;30.23;25.42;;;18.90;99.80;;;;;;4914656;29;20076;-87
2021/09/15 05:59:02;;;;;;;30.63;25.02;;;18.90;99.80;;;;;;4915178;29;20051;-86
2021/09/15 06:01:27;;;;;;;29.92;25.58;;;18.90;99.90;;;;;;4884891;29;20056;-88
2021/09/15 06:03:53;;;;;;;30.00;25.25;;;19.00;99.90;;;;;;4916854;29;20024;-88
2021/09/15 06:06:19;;;;;;;26.92;24.00;;;19.00;99.90;;;;;;4883864;29;20076;-88
2021/09/15 06:08:45;;;;;;;25.27;22.35;;;19.00;99.90;;;;;;4901319;29;20032;-88
2021/09/15 06:11:10;;;;;;;29.60;24.35;;;19.00;99.90;;;;;;4915833;29;20422;-89
2021/09/15 06:13:36;;;;;;;27.83;24.40;;;19.00;99.90;;;;;;4899477;29;20031;-88
2021/09/15 06:16:58;;;;;;;;;;;;;;;;;;;;;
2021/09/15 06:19:27;;;;;;;26.60;20.57;;;18.90;99.90;;;;;;4882977;29;20120;-89
2021/09/15 06:21:53;;;;;;;25.02;21.40;;;18.90;99.90;;;;;;4916502;29;20043;-87
2021/09/15 06:24:19;;;;;;;29.90;24.17;;;18.90;99.90;;;;;;4915215;29;20028;-86
2021/09/15 06:26:47;;;;;;;29.83;24.40;;;18.90;99.90;;;;;;4900479;29;20040;-85
2021/09/15 06:29:12;;;;;;;28.35;22.30;;;18.90;99.90;;;;;;4867606;29;20049;-82
2021/09/15 06:31:39;;;;;;;27.60;22.92;;;19.00;99.90;;;;;;4868273;29;20036;-86
2021/09/15 06:34:05;;;;;;;29.58;23.88;;;19.00;99.90;;;;;;4868890;29;20028;-84
2021/09/15 06:36:31;;;;;;;31.02;24.88;;;18.90;99.90;;;;;;4882130;29;20115;-80
2021/09/15 06:38:57;;;;;;;29.08;23.65;;;18.90;99.90;;;;;;4882059;29;20033;-81
2021/09/15 06:41:22;;;;;;;25.70;21.98;;;18.90;99.90;;;;;;4881642;29;20039;-82
2021/09/15 06:43:48;;;;;;;26.63;22.58;;;18.80;99.90;;;;;;4889091;29;20032;-81
2021/09/15 06:46:14;;;;;;;26.42;23.67;;;18.80;99.90;;;;;;4910531;29;20109;-87
2021/09/15 06:48:39;;;;;;;25.05;22.35;;;18.90;99.90;;;;;;4892558;29;20028;-84
2021/09/15 06:51:05;;;;;;;27.65;22.98;;;18.90;99.90;;;;;;4890351;29;20036;-86
2021/09/15 06:53:31;;;;;;;28.67;22.73;;;18.90;99.90;;;;;;4901564;29;20093;-87
2021/09/15 06:55:56;;;;;;;30.30;23.50;;;18.90;99.90;;;;;;4883417;29;20047;-87
2021/09/15 06:58:22;;;;;;;26.35;21.70;;;18.90;99.90;;;;;;4914469;29;20067;-87
2021/09/15 07:00:48;;;;;;;23.35;20.83;;;18.90;99.90;;;;;;4883448;29;20049;-87
2021/09/15 07:03:13;;;;;;;24.92;21.15;;;19.00;99.90;;;;;;4867650;29;20037;-86
2021/09/15 07:05:39;;;;;;;27.40;21.35;;;19.00;99.90;;;;;;4866954;29;20048;-86
2021/09/15 07:08:05;;;;;;;26.65;21.95;;;19.10;99.90;;;;;;4882239;29;20389;-82
2021/09/15 07:10:33;;;;;;;23.98;20.20;;;19.20;99.90;;;;;;4882002;29;20111;-83
2021/09/15 07:12:59;;;;;;;24.73;21.45;;;19.20;99.90;;;;;;4897245;29;20048;-83
2021/09/15 07:15:25;;;;;;;27.50;21.52;;;19.30;99.90;;;;;;4912641;29;20413;-82
2021/09/15 07:17:53;;;;;;;25.08;20.88;;;19.30;99.90;;;;;;4880923;29;20167;-82
2021/09/15 07:20:19;;;;;;;25.67;21.05;;;19.30;99.90;;;;;;4881233;29;20426;-85
2021/09/15 07:22:45;;;;;;;25.80;21.70;;;19.30;99.90;;;;;;4881409;29;20032;-82
2021/09/15 07:25:11;;;;;;;25.42;22.08;;;19.30;99.90;;;;;;4866052;29;20036;-82
2021/09/15 07:27:37;;;;;;;25.30;21.48;;;19.30;99.90;;;;;;4866188;29;20061;-82
2021/09/15 07:30:03;;;;;;;22.10;19.70;;;19.20;99.90;;;;;;4866726;29;20046;-85
2021/09/15 07:32:28;;;;;;;22.92;18.73;;;19.30;99.90;;;;;;4898615;29;20035;-86
2021/09/15 07:34:54;;;;;;;19.48;17.45;;;19.30;99.90;;;;;;4900143;29;20349;-86
2021/09/15 07:37:20;;;;;;;20.35;16.85;;;19.30;99.90;;;;;;4881877;29;20044;-86
2021/09/15 07:39:45;;;;;;;17.27;15.48;;;19.30;99.90;;;;;;4881454;29;20483;-84
2021/09/15 07:42:11;;;;;;;16.05;14.43;;;19.30;99.90;;;;;;4882405;29;20033;-83
2021/09/15 07:44:37;;;;;;;17.08;15.27;;;19.30;99.90;;;;;;4884693;29;20029;-84
2021/09/15 07:47:03;;;;;;;16.67;14.98;;;19.30;99.90;;;;;;4884587;29;20044;-82
2021/09/15 07:49:29;;;;;;;15.18;13.70;;;19.30;99.90;;;;;;4900312;29;20029;-83
2021/09/15 07:51:55;;;;;;;14.15;12.65;;;19.30;99.90;;;;;;4884403;29;20473;-84
2021/09/15 07:54:20;;;;;;;12.05;10.95;;;19.30;99.90;;;;;;4868862;29;20037;-84
2021/09/15 07:56:46;;;;;;;13.52;12.13;;;19.30;99.90;;;;;;4901277;29;20048;-83
2021/09/15 07:59:11;;;;;;;18.02;12.23;;;19.30;99.90;;;;;;4919576;29;20049;-81
2021/09/15 08:01:38;;;;;;;13.15;11.88;;;19.30;99.90;;;;;;4902707;29;20095;-83
2021/09/15 08:04:04;;;;;;;12.73;11.32;;;19.30;99.90;;;;;;4902569;29;20044;-84
2021/09/15 08:06:29;;;;;;;22.25;15.10;;;19.30;99.90;;;;;;4902681;29;20042;-80
2021/09/15 08:08:58;;;;;;;13.50;12.10;;;19.40;99.90;;;;;;4902827;29;20033;-83
2021/09/15 08:11:24;;;;;;;11.75;10.65;;;19.40;99.90;;;;;;4935275;29;20032;-87
2021/09/15 08:13:51;;;;;;;10.73;9.73;;;19.50;99.90;;;;;;4903681;29;20039;-85
2021/09/15 08:16:17;;;;;;;12.23;10.88;;;19.60;99.90;;;;;;4903663;29;20138;-87
2021/09/15 08:18:42;;;;;;;13.02;11.75;;;19.60;99.90;;;;;;4920779;29;20457;-88
2021/09/15 08:21:08;;;;;;;14.77;13.23;;;19.70;99.90;;;;;;4891890;29;20039;-89
2021/09/15 08:23:34;;;;;;;19.35;15.85;;;19.70;99.90;;;;;;4907073;29;20036;-90
2021/09/15 08:25:59;;;;;;;23.42;18.90;;;19.80;99.90;;;;;;4905886;29;20036;-88
2021/09/15 08:28:25;;;;;;;29.67;21.98;;;19.80;99.90;;;;;;4889648;29;20032;-91
2021/09/15 08:30:51;;;;;;;32.92;24.73;;;19.80;99.90;;;;;;4890642;29;20087;-91
2021/09/15 08:33:17;;;;;;;36.92;26.83;;;19.90;99.90;;;;;;4921007;29;20028;-88
2021/09/15 08:35:42;;;;;;;44.83;30.95;;;19.90;99.90;;;;;;4922265;29;20029;-89
2021/09/15 08:38:12;;;;;;;46.35;31.63;;;19.90;99.90;;;;;;4904798;29;20071;-87
2021/09/15 08:40:38;;;;;;;49.17;32.38;;;20.00;99.90;;;;;;4935374;29;20020;-88
2021/09/15 08:43:07;;;;;;;47.97;32.90;;;20.00;99.90;;;;;;4906643;29;20020;-88
2021/09/15 08:45:36;;;;;;;53.97;34.88;;;20.10;99.90;;;;;;4933933;29;20088;-90
2021/09/15 08:48:22;;;;;;;55.05;36.08;;;20.30;99.90;;;;;;4948316;29;20472;-90
2021/09/15 08:50:49;;;;;;;53.00;35.90;;;20.40;99.90;;;;;;4897937;29;20046;-90
2021/09/15 08:53:16;;;;;;;57.72;38.58;;;20.60;99.90;;;;;;4921440;29;20452;-90
2021/09/15 08:55:46;;;;;;;56.13;37.30;;;20.90;99.70;;;;;;4935626;29;20116;-89
2021/09/15 08:58:19;;;;;;;55.10;39.08;;;21.00;99.50;;;;;;4903621;29;20472;-90
2021/09/15 09:00:46;;;;;;;54.88;37.08;;;21.10;99.30;;;;;;4935891;29;20035;-88
2021/09/15 09:03:12;;;;;;;58.33;38.95;;;21.20;99.20;;;;;;4903973;29;20452;-88
2021/09/15 09:05:41;;;;;;;52.50;37.03;;;21.20;99.10;;;;;;4935505;29;20028;-88
2021/09/15 09:08:27;;;;;;;54.35;37.95;;;21.30;99.00;;;;;;4888581;29;20048;-88
2021/09/15 09:10:53;;;;;;;51.60;38.22;;;21.40;98.80;;;;;;4888548;29;20520;-88
2021/09/15 09:13:19;;;;;;;53.42;37.80;;;21.40;98.70;;;;;;4935212;29;20491;-89
2021/09/15 09:15:46;;;;;;;53.42;38.05;;;21.40;98.50;;;;;;4920675;29;20016;-90
2021/09/15 09:18:11;;;;;;;55.92;40.70;;;21.50;98.40;;;;;;4936031;29;20039;-89
2021/09/15 09:20:40;;;;;;;59.58;40.38;;;21.70;98.40;;;;;;4889077;29;20032;-90
2021/09/15 09:23:11;;;;;;;56.38;41.70;;;21.90;98.30;;;;;;4920230;29;20028;-90
2021/09/15 09:25:58;;;;;;;58.05;40.88;;;22.20;98.00;;;;;;4935617;29;20051;-89
2021/09/15 09:28:32;;;;;;;53.33;38.28;;;22.30;97.60;;;;;;4920410;29;20492;-87
2021/09/15 09:31:05;;;;;;;54.05;38.70;;;22.40;97.20;;;;;;4904444;29;20080;-89
2021/09/15 09:33:33;;;;;;;49.28;36.67;;;22.50;97.00;;;;;;4903749;29;20060;-89
2021/09/15 09:36:07;;;;;;;51.83;39.58;;;22.70;96.70;;;;;;4921752;29;20095;-89
2021/09/15 09:38:44;;;;;;;44.08;34.88;;;22.80;96.40;;;;;;4935032;29;20054;-89
2021/09/15 09:41:19;;;;;;;49.72;37.03;;;22.90;96.00;;;;;;4934883;29;20020;-89
2021/09/15 09:43:50;;;;;;;42.67;33.67;;;22.90;95.80;;;;;;4920588;29;20032;-88
2021/09/15 09:46:21;;;;;;;44.13;34.33;;;22.90;95.60;;;;;;4935412;29;20074;-90
2021/09/15 09:48:57;;;;;;;40.60;33.63;;;22.90;95.60;;;;;;4919730;29;20085;-90
2021/09/15 09:51:27;;;;;;;41.28;33.00;;;22.90;95.50;;;;;;4934559;29;20150;-89
2021/09/15 09:54:17;;;;;;;39.65;31.95;;;22.80;95.30;;;;;;4904279;29;20051;-90
2021/09/15 09:56:44;;;;;;;38.30;30.77;;;22.60;95.50;;;;;;4912679;29;20588;-91
2021/09/15 09:59:11;;;;;;;38.92;32.55;;;22.50;95.40;;;;;;4919810;29;20433;-90
2021/09/15 10:01:57;;;;;;;38.67;32.28;;;22.30;95.50;;;;;;4916673;29;20032;-90
2021/09/15 10:04:25;;;;;;;43.53;34.15;;;22.10;95.60;;;;;;4916399;29;20025;-90
2021/09/15 10:06:51;;;;;;;45.88;32.92;;;22.10;95.80;;;;;;4901245;29;20047;-89
2021/09/15 10:09:16;;;;;;;39.22;33.13;;;22.00;95.90;;;;;;4885604;29;20028;-90
2021/09/15 10:11:52;;;;;;;40.47;32.88;;;22.00;96.10;;;;;;4917006;29;20124;-90
2021/09/15 10:14:18;;;;;;;41.53;33.08;;;22.00;96.10;;;;;;4915735;29;20076;-90
2021/09/15 10:16:58;;;;;;;41.22;33.38;;;21.90;96.00;;;;;;4914902;29;20127;-90
2021/09/15 10:19:33;;;;;;;41.92;33.67;;;21.90;96.00;;;;;;4915584;29;20029;-91
2021/09/15 10:22:03;;;;;;;43.10;35.20;;;22.00;96.10;;;;;;4915149;29;20024;-90
2021/09/15 10:24:47;;;;;;;44.22;35.95;;;22.10;96.20;;;;;;4886212;29;20029;-90
2021/09/15 10:27:16;;;;;;;45.42;36.50;;;22.10;96.20;;;;;;4901867;29;20040;-90
2021/09/15 10:29:59;;;;;;;44.72;36.92;;;22.20;96.10;;;;;;4915352;29;20020;-90
2021/09/15 10:32:32;;;;;;;50.30;39.22;;;22.20;96.10;;;;;;4885299;29;20039;-90
2021/09/15 10:35:01;;;;;;;45.95;37.20;;;22.10;96.00;;;;;;4915248;29;20020;-89
2021/09/15 10:37:30;;;;;;;46.72;37.60;;;22.20;96.10;;;;;;4915221;29;20138;-89
2021/09/15 10:40:12;;;;;;;47.40;39.03;;;22.30;96.00;;;;;;4915556;29;20033;-90
2021/09/15 10:42:39;;;;;;;45.45;36.72;;;22.50;95.90;;;;;;4915575;29;20029;-90
2021/09/15 10:45:14;;;;;;;39.88;33.30;;;22.50;95.70;;;;;;4915211;29;20448;-89
2021/09/15 10:47:49;;;;;;;40.15;33.40;;;22.50;95.70;;;;;;4914138;29;20027;-89
2021/09/15 10:50:30;;;;;;;35.83;31.92;;;22.50;95.50;;;;;;4914948;29;20029;-88
2021/09/15 10:53:18;;;;;;;38.70;32.72;;;22.50;95.50;;;;;;4914511;29;20048;-88
2021/09/15 10:55:51;;;;;;;35.45;31.27;;;22.50;95.50;;;;;;4914162;29;20123;-86
2021/09/15 10:58:22;;;;;;;37.85;30.90;;;22.50;95.50;;;;;;4908049;29;20473;-86
2021/09/15 11:00:52;;;;;;;34.42;30.63;;;22.50;95.40;;;;;;4932941;29;20024;-84
2021/09/15 11:03:36;;;;;;;34.63;30.63;;;22.60;95.50;;;;;;4934097;29;20027;-86
2021/09/15 11:06:11;;;;;;;33.50;29.52;;;22.60;95.50;;;;;;4916804;29;20458;-85
2021/09/15 11:08:49;;;;;;;36.05;30.85;;;22.70;95.30;;;;;;4901463;29;20027;-87
2021/09/15 11:11:21;;;;;;;35.88;31.00;;;22.90;95.20;;;;;;4918138;29;20035;-86
2021/09/15 11:13:49;;;;;;;35.78;31.83;;;23.10;95.00;;;;;;4900449;29;20372;-86
2021/09/15 11:16:33;;;;;;;39.00;32.33;;;23.10;94.80;;;;;;4900042;29;20092;-86
2021/09/15 11:19:07;;;;;;;34.95;30.90;;;23.30;94.60;;;;;;4903088;29;20035;-86
2021/09/15 11:21:38;;;;;;;35.10;29.50;;;23.30;94.40;;;;;;4920792;29;20028;-85
2021/09/15 11:24:15;;;;;;;38.03;31.20;;;23.20;94.30;;;;;;4921167;29;20107;-86
2021/09/15 11:26:49;;;;;;;34.35;30.13;;;23.10;94.30;;;;;;4936718;29;20668;-86
2021/09/15 11:29:36;;;;;;;35.00;30.52;;;22.90;94.30;;;;;;4935414;29;20028;-86
2021/09/15 11:32:03;;;;;;;36.15;31.30;;;22.70;94.40;;;;;;4936004;29;20032;-86
2021/09/15 11:34:30;;;;;;;39.60;33.67;;;22.50;94.50;;;;;;4903996;29;20032;-87
2021/09/15 11:36:56;;;;;;;35.33;31.25;;;22.30;94.30;;;;;;4904635;29;20052;-86
2021/09/15 11:39:23;;;;;;;34.58;29.42;;;22.10;94.30;;;;;;4904022;29;20131;-86
2021/09/15 11:41:49;;;;;;;38.40;30.85;;;22.00;94.40;;;;;;4919819;29;20068;-85
2021/09/15 11:44:15;;;;;;;40.63;30.45;;;22.00;94.40;;;;;;4904473;29;20460;-86
2021/09/15 11:46:41;;;;;;;36.67;29.23;;;22.10;94.30;;;;;;4905189;29;20035;-87
2021/09/15 11:49:06;;;;;;;33.40;29.77;;;22.10;94.20;;;;;;4889184;29;20110;-86
2021/09/15 11:51:35;;;;;;;35.30;30.60;;;22.30;94.10;;;;;;4891639;29;20056;-85
2021/09/15 11:56:53;;;;;;;33.50;29.15;;;22.90;93.90;;;;;;4924413;29;20472;-84
2021/09/15 11:59:18;;;;;;;34.97;30.05;;;23.10;93.60;;;;;;4908202;29;20063;-84
2021/09/15 12:01:46;;;;;;;33.13;27.98;;;23.40;93.10;;;;;;4922146;29;20024;-83
2021/09/15 12:04:19;;;;;;;29.45;26.33;;;23.50;92.50;;;;;;4937267;29;20024;-83
2021/09/15 12:06:44;;;;;;;;;;;23.60;91.90;;;;;;4937486;29;20104;-83
2021/09/15 12:09:11;;;;;;;29.00;25.90;;;23.70;91.30;;;;;;4921262;29;19950;-83
2021/09/15 12:11:43;;;;;;;34.03;26.98;;;23.60;90.90;;;;;;4904761;29;20051;-81
2021/09/15 12:14:10;;;;;;;33.05;25.15;;;23.40;90.70;;;;;;4904528;29;20033;-82
2021/09/15 12:16:41;;;;;;;27.98;24.55;;;23.40;90.80;;;;;;4919211;29;20127;-82
2021/09/15 12:19:21;;;;;;;32.03;26.73;;;23.60;90.80;;;;;;4906582;29;20034;-82
2021/09/15 12:21:49;;;;;;;29.88;25.92;;;23.70;90.40;;;;;;4931460;29;20056;-83
2021/09/15 12:24:17;;;;;;;30.17;26.17;;;23.80;89.90;;;;;;4925824;29;20107;-83
2021/09/15 12:26:42;;;;;;;29.45;24.95;;;23.80;89.10;;;;;;4941802;29;20115;-86
2021/09/15 12:29:09;;;;;;;30.55;23.88;;;23.80;87.60;;;;;;4919610;29;20043;-86
2021/09/15 12:31:47;;;;;;;23.88;21.23;;;23.70;86.20;;;;;;4921653;29;20043;-84
2021/09/15 12:34:15;;;;;;;29.02;22.48;;;23.80;86.90;;;;;;4939933;29;20029;-88
2021/09/15 12:36:41;;;;;;;27.05;22.95;;;23.80;86.20;;;;;;4955538;28;20082;-87
2021/09/15 12:39:15;;;;;;;28.75;23.88;;;23.70;86.30;;;;;;4939487;29;20091;-85
2021/09/15 12:41:49;;;;;;;26.48;20.65;;;23.70;85.90;;;;;;4955359;28;20036;-85
2021/09/15 12:44:15;;;;;;;24.25;21.65;;;23.90;85.60;;;;;;4928667;29;20480;-83